sensor_id;sensor_type;location;lat;lon;timestamp;pressure;altitude;pressure_sealevel;temperature;humidity
65376;BME280;51976;47.332;9.404;2024-03-17T00:00:20;93418.28;;;7.91;100.00
65376;BME280;51976;47.332;9.404;2024-03-17T00:02:46;93415.03;;;7.89;100.00
65376;BME280;51976;47.332;9.404;2024-03-17T00:05:12;93415.84;;;7.89;100.00
65376;BME280;51976;47.332;9.404;2024-03-17T00:07:38;93409.41;;;7.90;100.00
65376;BME280;51976;47.332;9.404;2024-03-17T00:10:04;93423.69;;;7.96;100.00
65376;BME280;51976;47.332;9.404;2024-03-17T00:12:29;93417.22;;;7.92;100.00
65376;BME280;51976;47.332;9.404;2024-03-17T00:14:55;93408.59;;;7.90;100.00
65376;BME280;51976;47.332;9.404;2024-03-17T00:17:20;93410.97;;;7.86;100.00
65376;BME280;51976;47.332;9.404;2024-03-17T00:19:46;93412.34;;;7.89;100.00
65376;BME280;51976;47.332;9.404;2024-03-17T00:22:12;93414.53;;;7.92;100.00
65376;BME280;51976;47.332;9.404;2024-03-17T00:24:40;93411.31;;;7.95;100.00
65376;BME280;51976;47.332;9.404;2024-03-17T00:27:05;93402.69;;;7.88;100.00
65376;BME280;51976;47.332;9.404;2024-03-17T00:29:31;93401.81;;;7.82;100.00
65376;BME280;51976;47.332;9.404;2024-03-17T00:31:57;93410.91;;;7.81;100.00
65376;BME280;51976;47.332;9.404;2024-03-17T00:34:22;93408.97;;;7.76;100.00
65376;BME280;51976;47.332;9.404;2024-03-17T00:36:48;93393.88;;;7.70;100.00
65376;BME280;51976;47.332;9.404;2024-03-17T00:39:13;93405.56;;;7.81;100.00
65376;BME280;51976;47.332;9.404;2024-03-17T00:41:42;93403.75;;;7.87;100.00
65376;BME280;51976;47.332;9.404;2024-03-17T00:44:07;93405.41;;;7.93;100.00
65376;BME280;51976;47.332;9.404;2024-03-17T00:46:32;93410.78;;;7.93;100.00
65376;BME280;51976;47.332;9.404;2024-03-17T00:48:58;93396.28;;;7.94;100.00
65376;BME280;51976;47.332;9.404;2024-03-17T00:51:25;93398.94;;;7.89;100.00
65376;BME280;51976;47.332;9.404;2024-03-17T00:53:50;93397.69;;;7.74;100.00
65376;BME280;51976;47.332;9.404;2024-03-17T00:56:16;93394.25;;;7.79;100.00
65376;BME280;51976;47.332;9.404;2024-03-17T00:58:41;93391.63;;;7.84;100.00
65376;BME280;51976;47.332;9.404;2024-03-17T01:01:06;93391.00;;;7.77;100.00
65376;BME280;51976;47.332;9.404;2024-03-17T01:03:32;93389.72;;;7.58;100.00
65376;BME280;51976;47.332;9.404;2024-03-17T01:05:57;93391.09;;;7.60;100.00
65376;BME280;51976;47.332;9.404;2024-03-17T01:08:23;93390.13;;;7.71;100.00
65376;BME280;51976;47.332;9.404;2024-03-17T01:10:48;93378.75;;;7.59;100.00
65376;BME280;51976;47.332;9.404;2024-03-17T01:13:17;93372.75;;;7.52;100.00
65376;BME280;51976;47.332;9.404;2024-03-17T01:15:43;93364.31;;;7.65;100.00
65376;BME280;51976;47.332;9.404;2024-03-17T01:18:08;93369.25;;;7.52;100.00
65376;BME280;51976;47.332;9.404;2024-03-17T01:20:35;93364.44;;;7.54;100.00
65376;BME280;51976;47.332;9.404;2024-03-17T01:23:01;93359.44;;;7.40;100.00
65376;BME280;51976;47.332;9.404;2024-03-17T01:25:26;93360.31;;;7.46;100.00
65376;BME280;51976;47.332;9.404;2024-03-17T01:27:53;93355.47;;;7.43;100.00
65376;BME280;51976;47.332;9.404;2024-03-17T01:30:18;93344.47;;;7.44;100.00
65376;BME280;51976;47.332;9.404;2024-03-17T01:32:46;93349.59;;;7.46;100.00
65376;BME280;51976;47.332;9.404;2024-03-17T01:35:12;93353.97;;;7.52;100.00
65376;BME280;51976;47.332;9.404;2024-03-17T01:37:39;93340.00;;;7.50;100.00
65376;BME280;51976;47.332;9.404;2024-03-17T01:40:05;93333.75;;;7.44;100.00
65376;BME280;51976;47.332;9.404;2024-03-17T01:42:33;93340.31;;;7.54;100.00
65376;BME280;51976;47.332;9.404;2024-03-17T01:44:59;93330.56;;;7.47;100.00
65376;BME280;51976;47.332;9.404;2024-03-17T01:47:24;93336.75;;;7.48;100.00
65376;BME280;51976;47.332;9.404;2024-03-17T01:49:51;93334.06;;;7.48;100.00
65376;BME280;51976;47.332;9.404;2024-03-17T01:52:19;93329.94;;;7.40;100.00
65376;BME280;51976;47.332;9.404;2024-03-17T01:54:46;93324.28;;;7.37;100.00
65376;BME280;51976;47.332;9.404;2024-03-17T01:57:13;93313.56;;;7.37;100.00
65376;BME280;51976;47.332;9.404;2024-03-17T01:59:39;93309.25;;;7.36;100.00
65376;BME280;51976;47.332;9.404;2024-03-17T02:02:05;93301.22;;;7.36;100.00
65376;BME280;51976;47.332;9.404;2024-03-17T02:04:31;93301.78;;;7.38;100.00
65376;BME280;51976;47.332;9.404;2024-03-17T02:06:56;93290.31;;;7.21;100.00
65376;BME280;51976;47.332;9.404;2024-03-17T02:09:22;93289.50;;;7.20;100.00
65376;BME280;51976;47.332;9.404;2024-03-17T02:11:48;93294.34;;;7.23;100.00
65376;BME280;51976;47.332;9.404;2024-03-17T02:14:13;93295.66;;;7.21;100.00
65376;BME280;51976;47.332;9.404;2024-03-17T02:16:40;93293.16;;;7.14;100.00
65376;BME280;51976;47.332;9.404;2024-03-17T02:19:06;93297.03;;;7.23;100.00
65376;BME280;51976;47.332;9.404;2024-03-17T02:21:31;93294.91;;;7.25;100.00
65376;BME280;51976;47.332;9.404;2024-03-17T02:23:57;93282.44;;;7.14;100.00
65376;BME280;51976;47.332;9.404;2024-03-17T02:26:23;93275.78;;;7.17;100.00
65376;BME280;51976;47.332;9.404;2024-03-17T02:28:49;93275.91;;;7.27;100.00
65376;BME280;51976;47.332;9.404;2024-03-17T02:31:16;93270.59;;;7.32;100.00
65376;BME280;51976;47.332;9.404;2024-03-17T02:33:42;93268.97;;;7.31;100.00
65376;BME280;51976;47.332;9.404;2024-03-17T02:36:08;93267.41;;;7.35;100.00
65376;BME280;51976;47.332;9.404;2024-03-17T02:38:38;93270.59;;;7.32;100.00
65376;BME280;51976;47.332;9.404;2024-03-17T02:41:23;93261.38;;;7.23;100.00
65376;BME280;51976;47.332;9.404;2024-03-17T02:43:49;93268.97;;;7.31;100.00
65376;BME280;51976;47.332;9.404;2024-03-17T02:46:16;93264.66;;;7.30;100.00
65376;BME280;51976;47.332;9.404;2024-03-17T02:48:44;93264.03;;;7.23;100.00
65376;BME280;51976;47.332;9.404;2024-03-17T02:51:15;93260.44;;;7.12;100.00
65376;BME280;51976;47.332;9.404;2024-03-17T02:53:45;93256.94;;;7.11;100.00
65376;BME280;51976;47.332;9.404;2024-03-17T02:56:12;93254.34;;;6.95;100.00
65376;BME280;51976;47.332;9.404;2024-03-17T02:58:38;93250.03;;;6.94;100.00
65376;BME280;51976;47.332;9.404;2024-03-17T03:01:05;93244.50;;;7.00;100.00
65376;BME280;51976;47.332;9.404;2024-03-17T03:03:31;93250.72;;;7.06;100.00
65376;BME280;51976;47.332;9.404;2024-03-17T03:05:57;93236.94;;;6.97;100.00
65376;BME280;51976;47.332;9.404;2024-03-17T03:08:23;93242.63;;;7.01;100.00
65376;BME280;51976;47.332;9.404;2024-03-17T03:10:49;93238.31;;;7.00;100.00
65376;BME280;51976;47.332;9.404;2024-03-17T03:13:14;93236.94;;;6.97;100.00
65376;BME280;51976;47.332;9.404;2024-03-17T03:15:40;93240.94;;;6.95;100.00
65376;BME280;51976;47.332;9.404;2024-03-17T03:18:05;93230.47;;;6.93;100.00
65376;BME280;51976;47.332;9.404;2024-03-17T03:20:31;93238.81;;;6.97;100.00
65376;BME280;51976;47.332;9.404;2024-03-17T03:22:56;93232.66;;;6.96;100.00
65376;BME280;51976;47.332;9.404;2024-03-17T03:25:21;93238.13;;;6.85;100.00
65376;BME280;51976;47.332;9.404;2024-03-17T03:27:47;93234.34;;;6.81;100.00
65376;BME280;51976;47.332;9.404;2024-03-17T03:30:12;93230.09;;;6.85;100.00
65376;BME280;51976;47.332;9.404;2024-03-17T03:32:40;93229.00;;;6.81;100.00
65376;BME280;51976;47.332;9.404;2024-03-17T03:35:06;93240.88;;;6.68;100.00
65376;BME280;51976;47.332;9.404;2024-03-17T03:37:32;93236.72;;;6.55;100.00
65376;BME280;51976;47.332;9.404;2024-03-17T03:39:57;93236.16;;;6.36;100.00
65376;BME280;51976;47.332;9.404;2024-03-17T03:42:24;93244.19;;;6.36;100.00
65376;BME280;51976;47.332;9.404;2024-03-17T03:44:49;93242.91;;;6.39;100.00
65376;BME280;51976;47.332;9.404;2024-03-17T03:47:15;93240.88;;;6.46;100.00
65376;BME280;51976;47.332;9.404;2024-03-17T03:49:40;93233.06;;;6.44;100.00
65376;BME280;51976;47.332;9.404;2024-03-17T03:52:05;93232.75;;;6.41;100.00
65376;BME280;51976;47.332;9.404;2024-03-17T03:54:31;93227.56;;;6.34;100.00
65376;BME280;51976;47.332;9.404;2024-03-17T03:56:56;93227.00;;;6.32;100.00
65376;BME280;51976;47.332;9.404;2024-03-17T03:59:21;93233.06;;;6.44;100.00
65376;BME280;51976;47.332;9.404;2024-03-17T04:01:47;93227.06;;;6.37;100.00
65376;BME280;51976;47.332;9.404;2024-03-17T04:04:15;93227.50;;;6.29;100.00
65376;BME280;51976;47.332;9.404;2024-03-17T04:06:41;93234.19;;;6.27;100.00
65376;BME280;51976;47.332;9.404;2024-03-17T04:09:06;93230.78;;;6.15;100.00
65376;BME280;51976;47.332;9.404;2024-03-17T04:11:34;93228.75;;;6.22;100.00
65376;BME280;51976;47.332;9.404;2024-03-17T04:14:01;93221.69;;;6.16;100.00
65376;BME280;51976;47.332;9.404;2024-03-17T04:16:27;93226.41;;;6.08;100.00
65376;BME280;51976;47.332;9.404;2024-03-17T04:18:52;93234.34;;;6.03;100.00
65376;BME280;51976;47.332;9.404;2024-03-17T04:21:17;93234.03;;;6.00;100.00
65376;BME280;51976;47.332;9.404;2024-03-17T04:23:43;93223.25;;;5.95;100.00
65376;BME280;51976;47.332;9.404;2024-03-17T04:26:09;93226.69;;;5.78;100.00
65376;BME280;51976;47.332;9.404;2024-03-17T04:28:34;93231.53;;;5.93;100.00
65376;BME280;51976;47.332;9.404;2024-03-17T04:31:07;93225.25;;;6.04;100.00
65376;BME280;51976;47.332;9.404;2024-03-17T04:33:33;93234.59;;;6.02;100.00
65376;BME280;51976;47.332;9.404;2024-03-17T04:35:59;93237.16;;;5.80;100.00
65376;BME280;51976;47.332;9.404;2024-03-17T04:38:24;93236.84;;;5.76;100.00
65376;BME280;51976;47.332;9.404;2024-03-17T04:40:50;93228.16;;;5.86;100.00
65376;BME280;51976;47.332;9.404;2024-03-17T04:43:16;93225.91;;;5.78;100.00
65376;BME280;51976;47.332;9.404;2024-03-17T04:45:42;93236.13;;;5.64;100.00
65376;BME280;51976;47.332;9.404;2024-03-17T04:48:09;93231.44;;;5.71;100.00
65376;BME280;51976;47.332;9.404;2024-03-17T04:50:35;93233.09;;;5.77;100.00
65376;BME280;51976;47.332;9.404;2024-03-17T04:53:00;93231.72;;;5.75;100.00
65376;BME280;51976;47.332;9.404;2024-03-17T04:55:26;93237.66;;;5.77;100.00
65376;BME280;51976;47.332;9.404;2024-03-17T04:57:51;93237.75;;;5.65;100.00
65376;BME280;51976;47.332;9.404;2024-03-17T05:00:17;93242.44;;;5.58;100.00
65376;BME280;51976;47.332;9.404;2024-03-17T05:02:44;93234.97;;;5.60;100.00
65376;BME280;51976;47.332;9.404;2024-03-17T05:05:10;93239.66;;;5.53;100.00
65376;BME280;51976;47.332;9.404;2024-03-17T05:07:38;93244.53;;;5.56;100.00
65376;BME280;51976;47.332;9.404;2024-03-17T05:10:04;93233.84;;;5.56;100.00
65376;BME280;51976;47.332;9.404;2024-03-17T05:12:31;93240.41;;;5.65;100.00
65376;BME280;51976;47.332;9.404;2024-03-17T05:14:56;93236.41;;;5.51;100.00
65376;BME280;51976;47.332;9.404;2024-03-17T05:17:21;93247.53;;;5.43;100.00
65376;BME280;51976;47.332;9.404;2024-03-17T05:19:47;93247.75;;;5.41;100.00
65376;BME280;51976;47.332;9.404;2024-03-17T05:22:12;93243.72;;;5.56;100.00
65376;BME280;51976;47.332;9.404;2024-03-17T05:24:38;93252.47;;;5.51;100.00
65376;BME280;51976;47.332;9.404;2024-03-17T05:27:03;93250.03;;;5.50;100.00
65376;BME280;51976;47.332;9.404;2024-03-17T05:29:28;93244.38;;;5.46;100.00
65376;BME280;51976;47.332;9.404;2024-03-17T05:31:54;93238.22;;;5.62;100.00
65376;BME280;51976;47.332;9.404;2024-03-17T05:34:19;93254.91;;;5.53;100.00
65376;BME280;51976;47.332;9.404;2024-03-17T05:36:45;93239.41;;;5.38;100.00
65376;BME280;51976;47.332;9.404;2024-03-17T05:39:12;93249.78;;;5.34;100.00
65376;BME280;51976;47.332;9.404;2024-03-17T05:41:37;93253.72;;;5.32;100.00
65376;BME280;51976;47.332;9.404;2024-03-17T05:44:03;93249.91;;;5.28;100.00
65376;BME280;51976;47.332;9.404;2024-03-17T05:46:29;93256.16;;;5.33;100.00
65376;BME280;51976;47.332;9.404;2024-03-17T05:48:54;93256.22;;;5.22;100.00
65376;BME280;51976;47.332;9.404;2024-03-17T05:51:20;93262.13;;;5.24;100.00
65376;BME280;51976;47.332;9.404;2024-03-17T05:53:46;93257.69;;;5.29;100.00
65376;BME280;51976;47.332;9.404;2024-03-17T05:56:12;93257.66;;;5.41;100.00
65376;BME280;51976;47.332;9.404;2024-03-17T05:58:38;93248.09;;;5.45;100.00
65376;BME280;51976;47.332;9.404;2024-03-17T06:01:05;93234.22;;;5.48;100.00
65376;BME280;51976;47.332;9.404;2024-03-17T06:03:32;93238.84;;;5.36;100.00
65376;BME280;51976;47.332;9.404;2024-03-17T06:05:58;93235.84;;;5.32;100.00
65376;BME280;51976;47.332;9.404;2024-03-17T06:08:24;93233.50;;;5.36;100.00
65376;BME280;51976;47.332;9.404;2024-03-17T06:10:50;93235.44;;;5.40;100.00
65376;BME280;51976;47.332;9.404;2024-03-17T06:13:15;93234.06;;;5.38;100.00
65376;BME280;51976;47.332;9.404;2024-03-17T06:15:43;93235.69;;;5.39;100.00
65376;BME280;51976;47.332;9.404;2024-03-17T06:18:11;93225.25;;;5.54;100.00
65376;BME280;51976;47.332;9.404;2024-03-17T06:20:40;93224.19;;;5.55;100.00
65376;BME280;51976;47.332;9.404;2024-03-17T06:23:07;93237.22;;;5.52;100.00
65376;BME280;51976;47.332;9.404;2024-03-17T06:25:38;93232.69;;;5.52;100.00
65376;BME280;51976;47.332;9.404;2024-03-17T06:28:04;93232.69;;;5.52;100.00
65376;BME280;51976;47.332;9.404;2024-03-17T06:30:29;93239.50;;;5.60;100.00
65376;BME280;51976;47.332;9.404;2024-03-17T06:32:55;93243.56;;;5.62;100.00
65376;BME280;51976;47.332;9.404;2024-03-17T06:35:20;93249.88;;;5.56;100.00
65376;BME280;51976;47.332;9.404;2024-03-17T06:37:50;93253.13;;;5.58;100.00
65376;BME280;51976;47.332;9.404;2024-03-17T06:40:17;93245.50;;;5.50;100.00
65376;BME280;51976;47.332;9.404;2024-03-17T06:42:43;93253.94;;;5.59;100.00
65376;BME280;51976;47.332;9.404;2024-03-17T06:45:08;93259.72;;;5.67;100.00
65376;BME280;51976;47.332;9.404;2024-03-17T06:47:35;93253.06;;;5.70;100.00
65376;BME280;51976;47.332;9.404;2024-03-17T06:50:02;93250.22;;;5.76;100.00
65376;BME280;51976;47.332;9.404;2024-03-17T06:52:28;93248.88;;;5.91;100.00
65376;BME280;51976;47.332;9.404;2024-03-17T06:54:53;93255.28;;;5.90;100.00
65376;BME280;51976;47.332;9.404;2024-03-17T06:57:19;93255.75;;;6.03;100.00
65376;BME280;51976;47.332;9.404;2024-03-17T06:59:44;93251.28;;;6.09;100.00
65376;BME280;51976;47.332;9.404;2024-03-17T07:02:11;93262.16;;;6.19;100.00
65376;BME280;51976;47.332;9.404;2024-03-17T07:04:40;93264.81;;;6.36;100.00
65376;BME280;51976;47.332;9.404;2024-03-17T07:07:06;93264.72;;;6.48;100.00
65376;BME280;51976;47.332;9.404;2024-03-17T07:09:31;93252.00;;;6.60;100.00
65376;BME280;51976;47.332;9.404;2024-03-17T07:11:57;93256.06;;;6.84;100.00
65376;BME280;51976;47.332;9.404;2024-03-17T07:14:22;93250.44;;;6.81;100.00
65376;BME280;51976;47.332;9.404;2024-03-17T07:16:48;93246.00;;;6.69;100.00
65376;BME280;51976;47.332;9.404;2024-03-17T07:19:13;93246.97;;;6.85;100.00
65376;BME280;51976;47.332;9.404;2024-03-17T07:21:38;93238.22;;;7.17;100.00
65376;BME280;51976;47.332;9.404;2024-03-17T07:24:04;93232.19;;;7.26;100.00
65376;BME280;51976;47.332;9.404;2024-03-17T07:26:30;93227.75;;;7.37;100.00
65376;BME280;51976;47.332;9.404;2024-03-17T07:28:56;93224.28;;;7.14;100.00
65376;BME280;51976;47.332;9.404;2024-03-17T07:31:22;93227.44;;;7.33;100.00
65376;BME280;51976;47.332;9.404;2024-03-17T07:33:47;93221.75;;;7.57;100.00
65376;BME280;51976;47.332;9.404;2024-03-17T07:36:13;93223.19;;;7.64;100.00
65376;BME280;51976;47.332;9.404;2024-03-17T07:38:38;93220.75;;;7.36;100.00
65376;BME280;51976;47.332;9.404;2024-03-17T07:41:06;93223.31;;;7.26;100.00
65376;BME280;51976;47.332;9.404;2024-03-17T07:43:34;93231.88;;;7.50;100.00
65376;BME280;51976;47.332;9.404;2024-03-17T07:46:01;93224.00;;;7.70;100.00
65376;BME280;51976;47.332;9.404;2024-03-17T07:48:28;93218.19;;;7.78;100.00
65376;BME280;51976;47.332;9.404;2024-03-17T07:51:04;93215.59;;;7.93;100.00
65376;BME280;51976;47.332;9.404;2024-03-17T07:53:30;93212.72;;;8.00;100.00
65376;BME280;51976;47.332;9.404;2024-03-17T07:56:08;93207.44;;;8.10;100.00
65376;BME280;51976;47.332;9.404;2024-03-17T07:58:35;93197.03;;;8.19;100.00
65376;BME280;51976;47.332;9.404;2024-03-17T08:01:04;93205.34;;;8.17;100.00
65376;BME280;51976;47.332;9.404;2024-03-17T08:03:32;93194.84;;;8.15;100.00
65376;BME280;51976;47.332;9.404;2024-03-17T08:05:58;93193.94;;;7.68;100.00
65376;BME280;51976;47.332;9.404;2024-03-17T08:08:24;93201.78;;;7.74;100.00
65376;BME280;51976;47.332;9.404;2024-03-17T08:10:50;93199.03;;;8.01;100.00
65376;BME280;51976;47.332;9.404;2024-03-17T08:13:19;93194.03;;;8.15;100.00
65376;BME280;51976;47.332;9.404;2024-03-17T08:15:46;93189.88;;;8.34;100.00
65376;BME280;51976;47.332;9.404;2024-03-17T08:18:14;93192.09;;;8.42;100.00
65376;BME280;51976;47.332;9.404;2024-03-17T08:20:41;93186.75;;;8.53;100.00
65376;BME280;51976;47.332;9.404;2024-03-17T08:23:09;93188.94;;;8.61;100.00
65376;BME280;51976;47.332;9.404;2024-03-17T08:25:36;93188.47;;;8.69;100.00
65376;BME280;51976;47.332;9.404;2024-03-17T08:28:02;93190.59;;;8.67;100.00
65376;BME280;51976;47.332;9.404;2024-03-17T08:30:28;93185.25;;;8.72;100.00
65376;BME280;51976;47.332;9.404;2024-03-17T08:32:53;93183.63;;;8.71;100.00
65376;BME280;51976;47.332;9.404;2024-03-17T08:35:19;93191.69;;;8.76;100.00
65376;BME280;51976;47.332;9.404;2024-03-17T08:37:44;93182.31;;;8.83;100.00
65376;BME280;51976;47.332;9.404;2024-03-17T08:40:11;93191.44;;;8.72;100.00
65376;BME280;51976;47.332;9.404;2024-03-17T08:42:37;93187.44;;;8.85;100.00
65376;BME280;51976;47.332;9.404;2024-03-17T08:45:02;93186.47;;;9.11;100.00
65376;BME280;51976;47.332;9.404;2024-03-17T08:47:28;93173.59;;;9.24;100.00
65376;BME280;51976;47.332;9.404;2024-03-17T08:49:54;93180.31;;;9.31;100.00
65376;BME280;51976;47.332;9.404;2024-03-17T08:52:19;93161.22;;;9.38;100.00
65376;BME280;51976;47.332;9.404;2024-03-17T08:54:47;93160.47;;;9.53;100.00
65376;BME280;51976;47.332;9.404;2024-03-17T08:57:15;93158.31;;;9.70;100.00
65376;BME280;51976;47.332;9.404;2024-03-17T08:59:41;93163.69;;;9.80;100.00
65376;BME280;51976;47.332;9.404;2024-03-17T09:02:11;93157.75;;;9.98;100.00
65376;BME280;51976;47.332;9.404;2024-03-17T09:04:39;93158.56;;;10.29;100.00
65376;BME280;51976;47.332;9.404;2024-03-17T09:07:04;93157.19;;;10.37;100.00
65376;BME280;51976;47.332;9.404;2024-03-17T09:09:29;93155.78;;;10.60;100.00
65376;BME280;51976;47.332;9.404;2024-03-17T09:11:55;93148.19;;;10.72;100.00
65376;BME280;51976;47.332;9.404;2024-03-17T09:14:20;93155.13;;;10.93;100.00
65376;BME280;51976;47.332;9.404;2024-03-17T09:16:47;93153.09;;;10.55;100.00
65376;BME280;51976;47.332;9.404;2024-03-17T09:19:12;93148.53;;;10.45;100.00
65376;BME280;51976;47.332;9.404;2024-03-17T09:21:38;93157.47;;;10.35;100.00
65376;BME280;51976;47.332;9.404;2024-03-17T09:24:05;93149.88;;;10.58;100.00
65376;BME280;51976;47.332;9.404;2024-03-17T09:26:32;93150.16;;;11.21;100.00
65376;BME280;51976;47.332;9.404;2024-03-17T09:28:59;93152.97;;;11.44;100.00
65376;BME280;51976;47.332;9.404;2024-03-17T09:31:25;93136.94;;;11.58;100.00
65376;BME280;51976;47.332;9.404;2024-03-17T09:33:50;93135.22;;;11.33;100.00
65376;BME280;51976;47.332;9.404;2024-03-17T09:36:15;93143.09;;;11.64;100.00
65376;BME280;51976;47.332;9.404;2024-03-17T09:38:41;93128.91;;;11.87;100.00
65376;BME280;51976;47.332;9.404;2024-03-17T09:41:07;93127.78;;;11.93;100.00
65376;BME280;51976;47.332;9.404;2024-03-17T09:43:34;93127.19;;;12.01;100.00
65376;BME280;51976;47.332;9.404;2024-03-17T09:46:03;93130.41;;;12.03;100.00
65376;BME280;51976;47.332;9.404;2024-03-17T09:48:29;93120.28;;;12.14;100.00
65376;BME280;51976;47.332;9.404;2024-03-17T09:50:56;93127.56;;;11.84;100.00
65376;BME280;51976;47.332;9.404;2024-03-17T09:53:34;93121.63;;;11.88;100.00
65376;BME280;51976;47.332;9.404;2024-03-17T09:56:10;93120.09;;;11.32;100.00
65376;BME280;51976;47.332;9.404;2024-03-17T09:58:39;93119.72;;;11.49;100.00
65376;BME280;51976;47.332;9.404;2024-03-17T10:01:04;93126.63;;;11.65;100.00
65376;BME280;51976;47.332;9.404;2024-03-17T10:03:46;93121.31;;;11.89;100.00
65376;BME280;51976;47.332;9.404;2024-03-17T10:06:17;93119.50;;;12.13;100.00
65376;BME280;51976;47.332;9.404;2024-03-17T10:08:47;93118.16;;;12.11;100.00
65376;BME280;51976;47.332;9.404;2024-03-17T10:11:15;93125.66;;;11.90;100.00
65376;BME280;51976;47.332;9.404;2024-03-17T10:13:42;93120.38;;;12.04;100.00
65376;BME280;51976;47.332;9.404;2024-03-17T10:16:21;93134.13;;;11.73;100.00
65376;BME280;51976;47.332;9.404;2024-03-17T10:18:48;93135.50;;;11.71;100.00
65376;BME280;51976;47.332;9.404;2024-03-17T10:21:26;93138.81;;;11.58;100.00
65376;BME280;51976;47.332;9.404;2024-03-17T10:24:11;93139.19;;;11.46;100.00
65376;BME280;51976;47.332;9.404;2024-03-17T10:26:44;93140.84;;;11.42;100.00
65376;BME280;51976;47.332;9.404;2024-03-17T10:29:25;93139.06;;;11.61;100.00
65376;BME280;51976;47.332;9.404;2024-03-17T10:31:53;93134.78;;;11.55;100.00
65376;BME280;51976;47.332;9.404;2024-03-17T10:34:19;93130.44;;;11.59;100.00
65376;BME280;51976;47.332;9.404;2024-03-17T10:36:48;93134.91;;;11.79;100.00
65376;BME280;51976;47.332;9.404;2024-03-17T10:39:27;93125.16;;;11.83;100.00
65376;BME280;51976;47.332;9.404;2024-03-17T10:42:00;93133.34;;;11.68;100.00
65376;BME280;51976;47.332;9.404;2024-03-17T10:44:29;93133.06;;;11.74;100.00
65376;BME280;51976;47.332;9.404;2024-03-17T10:46:57;93116.81;;;11.79;100.00
65376;BME280;51976;47.332;9.404;2024-03-17T10:49:33;93130.25;;;11.90;100.00
65376;BME280;51976;47.332;9.404;2024-03-17T10:52:06;93128.03;;;11.97;100.00
65376;BME280;51976;47.332;9.404;2024-03-17T10:54:34;93135.16;;;11.82;100.00
65376;BME280;51976;47.332;9.404;2024-03-17T10:57:46;93126.25;;;11.82;100.00
65376;BME280;51976;47.332;9.404;2024-03-17T10:59:55;93129.69;;;11.93;100.00
65376;BME280;51976;47.332;9.404;2024-03-17T11:02:25;93141.69;;;11.76;100.00
65376;BME280;51976;47.332;9.404;2024-03-17T11:04:55;93130.25;;;11.90;100.00
65376;BME280;51976;47.332;9.404;2024-03-17T11:07:22;93140.25;;;11.89;100.00
65376;BME280;51976;47.332;9.404;2024-03-17T11:09:49;93140.00;;;11.85;100.00
65376;BME280;51976;47.332;9.404;2024-03-17T11:12:50;93146.63;;;11.64;100.00
65376;BME280;51976;47.332;9.404;2024-03-17T11:15:35;93149.06;;;11.61;100.00
65376;BME280;51976;47.332;9.404;2024-03-17T11:18:27;93139.00;;;11.71;100.00
65376;BME280;51976;47.332;9.404;2024-03-17T11:21:03;93146.47;;;11.45;100.00
65376;BME280;51976;47.332;9.404;2024-03-17T11:23:41;93137.88;;;11.38;100.00
65376;BME280;51976;47.332;9.404;2024-03-17T11:26:07;93142.09;;;11.49;100.00
65376;BME280;51976;47.332;9.404;2024-03-17T11:28:46;93145.50;;;11.70;100.00
65376;BME280;51976;47.332;9.404;2024-03-17T11:31:38;93145.03;;;11.58;100.00
65376;BME280;51976;47.332;9.404;2024-03-17T11:34:26;93142.34;;;11.58;100.00
65376;BME280;51976;47.332;9.404;2024-03-17T11:36:51;93149.34;;;11.59;100.00
65376;BME280;51976;47.332;9.404;2024-03-17T11:39:18;93146.38;;;11.61;100.00
65376;BME280;51976;47.332;9.404;2024-03-17T11:41:49;93151.75;;;11.61;100.00
65376;BME280;51976;47.332;9.404;2024-03-17T11:44:25;93151.06;;;11.45;100.00
65376;BME280;51976;47.332;9.404;2024-03-17T11:47:01;93159.66;;;11.52;100.00
65376;BME280;51976;47.332;9.404;2024-03-17T11:49:39;93156.13;;;11.51;100.00
65376;BME280;51976;47.332;9.404;2024-03-17T11:52:08;93153.78;;;11.45;100.00
65376;BME280;51976;47.332;9.404;2024-03-17T11:54:37;93156.38;;;11.55;100.00
65376;BME280;51976;47.332;9.404;2024-03-17T11:57:10;93155.84;;;11.53;100.00
65376;BME280;51976;47.332;9.404;2024-03-17T11:59:36;93153.66;;;11.60;100.00
65376;BME280;51976;47.332;9.404;2024-03-17T12:02:09;93154.34;;;11.37;100.00
65376;BME280;51976;47.332;9.404;2024-03-17T12:04:39;93160.00;;;11.40;100.00
65376;BME280;51976;47.332;9.404;2024-03-17T12:07:12;93140.59;;;11.38;100.00
65376;BME280;51976;47.332;9.404;2024-03-17T12:09:38;93146.47;;;11.45;100.00
65376;BME280;51976;47.332;9.404;2024-03-17T12:12:11;93151.34;;;11.43;100.00
65376;BME280;51976;47.332;9.404;2024-03-17T12:14:37;93156.03;;;11.28;100.00
65376;BME280;51976;47.332;9.404;2024-03-17T12:17:06;93168.44;;;11.29;100.00
65376;BME280;51976;47.332;9.404;2024-03-17T12:19:33;93164.06;;;11.38;100.00
65376;BME280;51976;47.332;9.404;2024-03-17T12:21:59;93173.00;;;11.33;100.00
65376;BME280;51976;47.332;9.404;2024-03-17T12:24:33;93174.56;;;11.44;100.00
65376;BME280;51976;47.332;9.404;2024-03-17T12:27:00;93162.97;;;11.39;100.00
65376;BME280;51976;47.332;9.404;2024-03-17T12:29:33;93179.19;;;11.34;100.00
65376;BME280;51976;47.332;9.404;2024-03-17T12:32:03;93174.63;;;11.29;100.00
65376;BME280;51976;47.332;9.404;2024-03-17T12:34:31;93165.81;;;11.13;100.00
65376;BME280;51976;47.332;9.404;2024-03-17T12:36:58;93157.94;;;11.22;100.00
65376;BME280;51976;47.332;9.404;2024-03-17T12:39:28;93154.13;;;11.28;100.00
65376;BME280;51976;47.332;9.404;2024-03-17T12:42:06;93152.75;;;11.36;100.00
65376;BME280;51976;47.332;9.404;2024-03-17T12:44:37;93137.34;;;11.36;100.00
65376;BME280;51976;47.332;9.404;2024-03-17T12:47:04;93137.06;;;11.38;100.00
65376;BME280;51976;47.332;9.404;2024-03-17T12:49:34;93132.47;;;11.38;100.00
65376;BME280;51976;47.332;9.404;2024-03-17T12:52:00;93125.69;;;11.46;100.00
65376;BME280;51976;47.332;9.404;2024-03-17T12:54:27;93117.53;;;11.51;100.00
65376;BME280;51976;47.332;9.404;2024-03-17T12:57:07;93120.22;;;11.51;100.00
65376;BME280;51976;47.332;9.404;2024-03-17T12:59:52;93119.72;;;11.49;100.00